sensor_id;sensor_type;location;lat;lon;timestamp;P1;durP1;ratioP1;P2;durP2;ratioP2
56373;SDS011;58212;47.034;7.376;2024-02-23T00:00:31;0.35;;;0.10;;
56373;SDS011;58212;47.034;7.376;2024-02-23T00:02:58;0.17;;;0.10;;
56373;SDS011;58212;47.034;7.376;2024-02-23T00:05:26;0.10;;;0.10;;
56373;SDS011;58212;47.034;7.376;2024-02-23T00:07:52;1.80;;;0.32;;
56373;SDS011;58212;47.034;7.376;2024-02-23T00:10:19;0.10;;;0.10;;
56373;SDS011;58212;47.034;7.376;2024-02-23T00:12:47;0.10;;;0.10;;
56373;SDS011;58212;47.034;7.376;2024-02-23T00:15:14;0.38;;;0.20;;
56373;SDS011;58212;47.034;7.376;2024-02-23T00:17:41;0.10;;;0.10;;
56373;SDS011;58212;47.034;7.376;2024-02-23T00:20:08;0.15;;;0.15;;
56373;SDS011;58212;47.034;7.376;2024-02-23T00:22:37;0.10;;;0.10;;
56373;SDS011;58212;47.034;7.376;2024-02-23T00:25:04;0.20;;;0.20;;
56373;SDS011;58212;47.034;7.376;2024-02-23T00:27:31;0.10;;;0.10;;
56373;SDS011;58212;47.034;7.376;2024-02-23T00:29:59;0.10;;;0.10;;
56373;SDS011;58212;47.034;7.376;2024-02-23T00:32:26;0.20;;;0.10;;
56373;SDS011;58212;47.034;7.376;2024-02-23T00:34:52;0.13;;;0.13;;
56373;SDS011;58212;47.034;7.376;2024-02-23T00:37:19;0.20;;;0.17;;
56373;SDS011;58212;47.034;7.376;2024-02-23T00:39:46;0.17;;;0.10;;
56373;SDS011;58212;47.034;7.376;2024-02-23T00:42:13;0.38;;;0.30;;
56373;SDS011;58212;47.034;7.376;2024-02-23T00:44:40;0.28;;;0.20;;
56373;SDS011;58212;47.034;7.376;2024-02-23T00:47:08;0.63;;;0.10;;
56373;SDS011;58212;47.034;7.376;2024-02-23T00:49:34;0.75;;;0.28;;
56373;SDS011;58212;47.034;7.376;2024-02-23T00:52:01;1.75;;;0.20;;
56373;SDS011;58212;47.034;7.376;2024-02-23T00:54:28;0.10;;;0.10;;
56373;SDS011;58212;47.034;7.376;2024-02-23T00:56:55;1.00;;;0.20;;
56373;SDS011;58212;47.034;7.376;2024-02-23T00:59:21;0.20;;;0.10;;
56373;SDS011;58212;47.034;7.376;2024-02-23T01:01:48;2.15;;;0.30;;
56373;SDS011;58212;47.034;7.376;2024-02-23T01:04:16;0.77;;;0.10;;
56373;SDS011;58212;47.034;7.376;2024-02-23T01:06:43;0.30;;;0.30;;
56373;SDS011;58212;47.034;7.376;2024-02-23T01:09:10;0.98;;;0.28;;
56373;SDS011;58212;47.034;7.376;2024-02-23T01:11:36;0.30;;;0.20;;
56373;SDS011;58212;47.034;7.376;2024-02-23T01:14:03;0.60;;;0.30;;
56373;SDS011;58212;47.034;7.376;2024-02-23T01:16:31;0.77;;;0.17;;
56373;SDS011;58212;47.034;7.376;2024-02-23T01:18:58;0.80;;;0.20;;
56373;SDS011;58212;47.034;7.376;2024-02-23T01:21:26;0.90;;;0.47;;
56373;SDS011;58212;47.034;7.376;2024-02-23T01:23:53;1.10;;;0.40;;
56373;SDS011;58212;47.034;7.376;2024-02-23T01:26:22;0.40;;;0.20;;
56373;SDS011;58212;47.034;7.376;2024-02-23T01:28:49;1.92;;;0.30;;
56373;SDS011;58212;47.034;7.376;2024-02-23T01:31:16;1.17;;;0.30;;
56373;SDS011;58212;47.034;7.376;2024-02-23T01:33:43;1.38;;;0.75;;
56373;SDS011;58212;47.034;7.376;2024-02-23T01:36:10;0.80;;;0.32;;
56373;SDS011;58212;47.034;7.376;2024-02-23T01:38:38;0.70;;;0.30;;
56373;SDS011;58212;47.034;7.376;2024-02-23T01:41:08;1.92;;;0.38;;
56373;SDS011;58212;47.034;7.376;2024-02-23T01:43:36;1.38;;;0.30;;
56373;SDS011;58212;47.034;7.376;2024-02-23T01:46:03;1.60;;;0.20;;
56373;SDS011;58212;47.034;7.376;2024-02-23T01:48:31;0.93;;;0.30;;
56373;SDS011;58212;47.034;7.376;2024-02-23T01:50:58;1.98;;;0.32;;
56373;SDS011;58212;47.034;7.376;2024-02-23T01:53:26;0.73;;;0.28;;
56373;SDS011;58212;47.034;7.376;2024-02-23T01:55:55;0.50;;;0.20;;
56373;SDS011;58212;47.034;7.376;2024-02-23T01:58:24;0.38;;;0.30;;
56373;SDS011;58212;47.034;7.376;2024-02-23T02:00:51;1.02;;;0.22;;
56373;SDS011;58212;47.034;7.376;2024-02-23T02:03:18;0.98;;;0.30;;
56373;SDS011;58212;47.034;7.376;2024-02-23T02:05:45;0.75;;;0.30;;
56373;SDS011;58212;47.034;7.376;2024-02-23T02:08:11;0.82;;;0.30;;
56373;SDS011;58212;47.034;7.376;2024-02-23T02:10:38;0.80;;;0.30;;
56373;SDS011;58212;47.034;7.376;2024-02-23T02:13:07;1.17;;;0.30;;
56373;SDS011;58212;47.034;7.376;2024-02-23T02:15:34;1.85;;;0.40;;
56373;SDS011;58212;47.034;7.376;2024-02-23T02:18:01;1.38;;;0.30;;
56373;SDS011;58212;47.034;7.376;2024-02-23T02:20:27;2.83;;;0.57;;
56373;SDS011;58212;47.034;7.376;2024-02-23T02:22:58;0.90;;;0.40;;
56373;SDS011;58212;47.034;7.376;2024-02-23T02:25:25;1.50;;;0.30;;
56373;SDS011;58212;47.034;7.376;2024-02-23T02:27:52;0.55;;;0.10;;
56373;SDS011;58212;47.034;7.376;2024-02-23T02:30:20;0.82;;;0.30;;
56373;SDS011;58212;47.034;7.376;2024-02-23T02:32:47;0.70;;;0.20;;
56373;SDS011;58212;47.034;7.376;2024-02-23T02:35:13;0.82;;;0.28;;
56373;SDS011;58212;47.034;7.376;2024-02-23T02:37:40;0.40;;;0.28;;
56373;SDS011;58212;47.034;7.376;2024-02-23T02:40:07;1.30;;;0.30;;
56373;SDS011;58212;47.034;7.376;2024-02-23T02:42:35;1.08;;;0.30;;
56373;SDS011;58212;47.034;7.376;2024-02-23T02:45:02;0.60;;;0.30;;
56373;SDS011;58212;47.034;7.376;2024-02-23T02:47:30;0.65;;;0.20;;
56373;SDS011;58212;47.034;7.376;2024-02-23T02:49:57;0.85;;;0.30;;
56373;SDS011;58212;47.034;7.376;2024-02-23T02:52:24;0.68;;;0.20;;
56373;SDS011;58212;47.034;7.376;2024-02-23T02:54:51;2.03;;;0.45;;
56373;SDS011;58212;47.034;7.376;2024-02-23T02:57:18;1.83;;;0.40;;
56373;SDS011;58212;47.034;7.376;2024-02-23T02:59:44;1.08;;;0.38;;
56373;SDS011;58212;47.034;7.376;2024-02-23T03:02:12;0.52;;;0.20;;
56373;SDS011;58212;47.034;7.376;2024-02-23T03:04:45;1.00;;;0.40;;
56373;SDS011;58212;47.034;7.376;2024-02-23T03:07:13;1.10;;;0.20;;
56373;SDS011;58212;47.034;7.376;2024-02-23T03:09:40;0.50;;;0.30;;
56373;SDS011;58212;47.034;7.376;2024-02-23T03:12:07;1.08;;;0.30;;
56373;SDS011;58212;47.034;7.376;2024-02-23T03:14:34;0.57;;;0.20;;
56373;SDS011;58212;47.034;7.376;2024-02-23T03:17:02;1.05;;;0.40;;
56373;SDS011;58212;47.034;7.376;2024-02-23T03:19:30;0.85;;;0.20;;
56373;SDS011;58212;47.034;7.376;2024-02-23T03:21:59;2.30;;;0.30;;
56373;SDS011;58212;47.034;7.376;2024-02-23T03:24:26;0.30;;;0.20;;
56373;SDS011;58212;47.034;7.376;2024-02-23T03:26:52;1.17;;;0.22;;
56373;SDS011;58212;47.034;7.376;2024-02-23T03:29:20;1.17;;;0.40;;
56373;SDS011;58212;47.034;7.376;2024-02-23T03:31:49;0.80;;;0.30;;
56373;SDS011;58212;47.034;7.376;2024-02-23T03:34:16;2.90;;;0.30;;
56373;SDS011;58212;47.034;7.376;2024-02-23T03:36:42;0.85;;;0.25;;
56373;SDS011;58212;47.034;7.376;2024-02-23T03:39:10;1.67;;;0.70;;
56373;SDS011;58212;47.034;7.376;2024-02-23T03:41:37;0.75;;;0.30;;
56373;SDS011;58212;47.034;7.376;2024-02-23T03:44:04;1.23;;;0.40;;
56373;SDS011;58212;47.034;7.376;2024-02-23T03:46:31;0.35;;;0.28;;
56373;SDS011;58212;47.034;7.376;2024-02-23T03:48:59;0.88;;;0.38;;
56373;SDS011;58212;47.034;7.376;2024-02-23T03:51:26;2.15;;;0.40;;
56373;SDS011;58212;47.034;7.376;2024-02-23T03:53:53;1.10;;;0.32;;
56373;SDS011;58212;47.034;7.376;2024-02-23T03:56:21;1.80;;;0.40;;
56373;SDS011;58212;47.034;7.376;2024-02-23T03:58:48;1.67;;;0.60;;
56373;SDS011;58212;47.034;7.376;2024-02-23T04:01:15;1.58;;;0.30;;
56373;SDS011;58212;47.034;7.376;2024-02-23T04:03:41;2.08;;;0.50;;
56373;SDS011;58212;47.034;7.376;2024-02-23T04:06:08;0.50;;;0.30;;
56373;SDS011;58212;47.034;7.376;2024-02-23T04:08:35;2.10;;;0.40;;
56373;SDS011;58212;47.034;7.376;2024-02-23T04:11:02;0.75;;;0.40;;
56373;SDS011;58212;47.034;7.376;2024-02-23T04:13:31;2.25;;;0.40;;
56373;SDS011;58212;47.034;7.376;2024-02-23T04:15:57;1.80;;;0.38;;
56373;SDS011;58212;47.034;7.376;2024-02-23T04:18:26;0.82;;;0.20;;
56373;SDS011;58212;47.034;7.376;2024-02-23T04:20:53;1.63;;;0.52;;
56373;SDS011;58212;47.034;7.376;2024-02-23T04:23:20;1.27;;;0.40;;
56373;SDS011;58212;47.034;7.376;2024-02-23T04:25:47;2.42;;;0.40;;
56373;SDS011;58212;47.034;7.376;2024-02-23T04:28:14;2.15;;;0.40;;
56373;SDS011;58212;47.034;7.376;2024-02-23T04:30:42;2.10;;;0.60;;
56373;SDS011;58212;47.034;7.376;2024-02-23T04:33:09;0.90;;;0.63;;
56373;SDS011;58212;47.034;7.376;2024-02-23T04:35:36;1.00;;;0.38;;
56373;SDS011;58212;47.034;7.376;2024-02-23T04:38:03;2.78;;;0.90;;
56373;SDS011;58212;47.034;7.376;2024-02-23T04:40:30;2.20;;;0.43;;
56373;SDS011;58212;47.034;7.376;2024-02-23T04:42:56;0.55;;;0.40;;
56373;SDS011;58212;47.034;7.376;2024-02-23T04:45:23;2.58;;;0.80;;
56373;SDS011;58212;47.034;7.376;2024-02-23T04:47:51;2.60;;;0.45;;
56373;SDS011;58212;47.034;7.376;2024-02-23T04:50:18;1.17;;;0.52;;
56373;SDS011;58212;47.034;7.376;2024-02-23T04:52:45;1.80;;;0.47;;
56373;SDS011;58212;47.034;7.376;2024-02-23T04:55:11;0.70;;;0.70;;
56373;SDS011;58212;47.034;7.376;2024-02-23T04:57:38;1.63;;;0.40;;
56373;SDS011;58212;47.034;7.376;2024-02-23T05:00:05;1.85;;;0.82;;
56373;SDS011;58212;47.034;7.376;2024-02-23T05:02:33;0.63;;;0.47;;
56373;SDS011;58212;47.034;7.376;2024-02-23T05:05:02;2.70;;;0.30;;
56373;SDS011;58212;47.034;7.376;2024-02-23T05:07:30;0.95;;;0.30;;
56373;SDS011;58212;47.034;7.376;2024-02-23T05:09:56;0.73;;;0.30;;
56373;SDS011;58212;47.034;7.376;2024-02-23T05:12:23;2.85;;;0.30;;
56373;SDS011;58212;47.034;7.376;2024-02-23T05:14:51;1.08;;;0.40;;
56373;SDS011;58212;47.034;7.376;2024-02-23T05:17:18;2.50;;;0.80;;
56373;SDS011;58212;47.034;7.376;2024-02-23T05:19:44;1.00;;;0.30;;
56373;SDS011;58212;47.034;7.376;2024-02-23T05:22:13;1.17;;;0.50;;
56373;SDS011;58212;47.034;7.376;2024-02-23T05:24:40;2.53;;;0.57;;
56373;SDS011;58212;47.034;7.376;2024-02-23T05:27:06;1.38;;;0.40;;
56373;SDS011;58212;47.034;7.376;2024-02-23T05:29:33;2.17;;;0.57;;
56373;SDS011;58212;47.034;7.376;2024-02-23T05:32:00;0.50;;;0.20;;
56373;SDS011;58212;47.034;7.376;2024-02-23T05:34:27;2.97;;;0.50;;
56373;SDS011;58212;47.034;7.376;2024-02-23T05:36:54;2.00;;;0.60;;
56373;SDS011;58212;47.034;7.376;2024-02-23T05:39:22;1.48;;;0.30;;
56373;SDS011;58212;47.034;7.376;2024-02-23T05:41:49;1.88;;;0.82;;
56373;SDS011;58212;47.034;7.376;2024-02-23T05:44:15;1.60;;;0.52;;
56373;SDS011;58212;47.034;7.376;2024-02-23T05:46:42;1.38;;;0.70;;
56373;SDS011;58212;47.034;7.376;2024-02-23T05:49:10;0.70;;;0.40;;
56373;SDS011;58212;47.034;7.376;2024-02-23T05:51:37;1.88;;;0.60;;
56373;SDS011;58212;47.034;7.376;2024-02-23T05:54:04;0.95;;;0.38;;
56373;SDS011;58212;47.034;7.376;2024-02-23T05:56:32;1.92;;;0.70;;
56373;SDS011;58212;47.034;7.376;2024-02-23T05:58:59;1.42;;;0.43;;
56373;SDS011;58212;47.034;7.376;2024-02-23T06:01:25;0.85;;;0.50;;
56373;SDS011;58212;47.034;7.376;2024-02-23T06:03:52;3.20;;;0.80;;
56373;SDS011;58212;47.034;7.376;2024-02-23T06:06:20;1.70;;;0.50;;
56373;SDS011;58212;47.034;7.376;2024-02-23T06:08:47;0.95;;;0.40;;
56373;SDS011;58212;47.034;7.376;2024-02-23T06:11:14;2.50;;;0.70;;
56373;SDS011;58212;47.034;7.376;2024-02-23T06:13:43;2.47;;;0.63;;
56373;SDS011;58212;47.034;7.376;2024-02-23T06:16:10;1.75;;;0.40;;
56373;SDS011;58212;47.034;7.376;2024-02-23T06:18:38;2.25;;;0.60;;
56373;SDS011;58212;47.034;7.376;2024-02-23T06:21:15;2.85;;;0.45;;
56373;SDS011;58212;47.034;7.376;2024-02-23T06:23:43;0.55;;;0.45;;
56373;SDS011;58212;47.034;7.376;2024-02-23T06:26:10;2.25;;;0.70;;
56373;SDS011;58212;47.034;7.376;2024-02-23T06:28:37;1.33;;;0.45;;
56373;SDS011;58212;47.034;7.376;2024-02-23T06:31:08;0.75;;;0.35;;
56373;SDS011;58212;47.034;7.376;2024-02-23T06:33:35;2.50;;;0.47;;
56373;SDS011;58212;47.034;7.376;2024-02-23T06:36:02;1.25;;;0.50;;
56373;SDS011;58212;47.034;7.376;2024-02-23T06:38:30;1.25;;;0.60;;
56373;SDS011;58212;47.034;7.376;2024-02-23T06:40:56;3.70;;;1.00;;
56373;SDS011;58212;47.034;7.376;2024-02-23T06:43:23;3.97;;;1.45;;
56373;SDS011;58212;47.034;7.376;2024-02-23T06:45:50;2.63;;;1.20;;
56373;SDS011;58212;47.034;7.376;2024-02-23T06:48:18;4.72;;;0.95;;
56373;SDS011;58212;47.034;7.376;2024-02-23T06:50:45;1.98;;;1.55;;
56373;SDS011;58212;47.034;7.376;2024-02-23T06:53:13;4.53;;;1.50;;
56373;SDS011;58212;47.034;7.376;2024-02-23T06:55:40;1.52;;;0.90;;
56373;SDS011;58212;47.034;7.376;2024-02-23T06:58:07;1.70;;;0.90;;
56373;SDS011;58212;47.034;7.376;2024-02-23T07:00:35;2.03;;;1.25;;
56373;SDS011;58212;47.034;7.376;2024-02-23T07:03:03;1.83;;;1.50;;
56373;SDS011;58212;47.034;7.376;2024-02-23T07:05:32;4.50;;;3.15;;
56373;SDS011;58212;47.034;7.376;2024-02-23T07:08:00;2.50;;;1.90;;
56373;SDS011;58212;47.034;7.376;2024-02-23T07:10:27;5.13;;;1.48;;
56373;SDS011;58212;47.034;7.376;2024-02-23T07:12:54;3.35;;;1.30;;
56373;SDS011;58212;47.034;7.376;2024-02-23T07:15:21;5.35;;;0.90;;
56373;SDS011;58212;47.034;7.376;2024-02-23T07:17:48;3.28;;;0.65;;
56373;SDS011;58212;47.034;7.376;2024-02-23T07:20:15;0.60;;;0.38;;
56373;SDS011;58212;47.034;7.376;2024-02-23T07:22:44;3.92;;;0.90;;
56373;SDS011;58212;47.034;7.376;2024-02-23T07:25:12;1.63;;;0.88;;
56373;SDS011;58212;47.034;7.376;2024-02-23T07:27:42;2.67;;;1.00;;
56373;SDS011;58212;47.034;7.376;2024-02-23T07:30:10;3.20;;;0.80;;
56373;SDS011;58212;47.034;7.376;2024-02-23T07:32:37;2.90;;;0.75;;
56373;SDS011;58212;47.034;7.376;2024-02-23T07:35:04;2.92;;;0.75;;
56373;SDS011;58212;47.034;7.376;2024-02-23T07:37:31;1.92;;;0.52;;
56373;SDS011;58212;47.034;7.376;2024-02-23T07:39:59;3.55;;;0.55;;
56373;SDS011;58212;47.034;7.376;2024-02-23T07:42:26;3.67;;;0.80;;
56373;SDS011;58212;47.034;7.376;2024-02-23T07:44:53;3.45;;;0.60;;
56373;SDS011;58212;47.034;7.376;2024-02-23T07:47:20;3.50;;;0.73;;
56373;SDS011;58212;47.034;7.376;2024-02-23T07:49:46;2.65;;;0.80;;
56373;SDS011;58212;47.034;7.376;2024-02-23T07:52:13;2.75;;;0.50;;
56373;SDS011;58212;47.034;7.376;2024-02-23T07:54:40;1.45;;;0.63;;
56373;SDS011;58212;47.034;7.376;2024-02-23T07:57:08;1.50;;;0.50;;
56373;SDS011;58212;47.034;7.376;2024-02-23T07:59:35;2.13;;;0.85;;
56373;SDS011;58212;47.034;7.376;2024-02-23T08:02:01;2.40;;;1.08;;
56373;SDS011;58212;47.034;7.376;2024-02-23T08:04:28;3.17;;;1.38;;
56373;SDS011;58212;47.034;7.376;2024-02-23T08:06:55;3.75;;;0.98;;
56373;SDS011;58212;47.034;7.376;2024-02-23T08:09:22;3.75;;;1.20;;
56373;SDS011;58212;47.034;7.376;2024-02-23T08:11:49;3.05;;;0.80;;
56373;SDS011;58212;47.034;7.376;2024-02-23T08:14:17;4.25;;;0.90;;
56373;SDS011;58212;47.034;7.376;2024-02-23T08:16:44;1.45;;;0.80;;
56373;SDS011;58212;47.034;7.376;2024-02-23T08:19:11;4.32;;;1.63;;
56373;SDS011;58212;47.034;7.376;2024-02-23T08:21:38;3.03;;;0.95;;
56373;SDS011;58212;47.034;7.376;2024-02-23T08:24:06;2.83;;;0.90;;
56373;SDS011;58212;47.034;7.376;2024-02-23T08:26:33;3.05;;;0.90;;
56373;SDS011;58212;47.034;7.376;2024-02-23T08:29:00;3.20;;;1.02;;
56373;SDS011;58212;47.034;7.376;2024-02-23T08:31:29;6.63;;;0.85;;
56373;SDS011;58212;47.034;7.376;2024-02-23T08:33:56;4.72;;;1.08;;
56373;SDS011;58212;47.034;7.376;2024-02-23T08:36:22;3.65;;;0.73;;
56373;SDS011;58212;47.034;7.376;2024-02-23T08:38:49;1.42;;;0.70;;
56373;SDS011;58212;47.034;7.376;2024-02-23T08:41:16;2.42;;;0.73;;
56373;SDS011;58212;47.034;7.376;2024-02-23T08:43:43;2.78;;;0.80;;
56373;SDS011;58212;47.034;7.376;2024-02-23T08:46:09;2.85;;;1.00;;
56373;SDS011;58212;47.034;7.376;2024-02-23T08:48:37;2.20;;;0.55;;
56373;SDS011;58212;47.034;7.376;2024-02-23T08:51:04;2.85;;;0.60;;
56373;SDS011;58212;47.034;7.376;2024-02-23T08:53:31;2.20;;;0.50;;
56373;SDS011;58212;47.034;7.376;2024-02-23T08:55:58;2.05;;;0.60;;
56373;SDS011;58212;47.034;7.376;2024-02-23T08:58:25;1.58;;;0.50;;
56373;SDS011;58212;47.034;7.376;2024-02-23T09:00:52;1.25;;;0.50;;
56373;SDS011;58212;47.034;7.376;2024-02-23T09:03:19;1.80;;;0.50;;
56373;SDS011;58212;47.034;7.376;2024-02-23T09:05:47;3.20;;;0.77;;
56373;SDS011;58212;47.034;7.376;2024-02-23T09:08:14;2.13;;;0.60;;
56373;SDS011;58212;47.034;7.376;2024-02-23T09:10:41;2.10;;;0.52;;
56373;SDS011;58212;47.034;7.376;2024-02-23T09:13:08;2.97;;;0.52;;
56373;SDS011;58212;47.034;7.376;2024-02-23T09:15:34;3.13;;;1.15;;
56373;SDS011;58212;47.034;7.376;2024-02-23T09:18:02;2.35;;;0.50;;
56373;SDS011;58212;47.034;7.376;2024-02-23T09:20:29;2.72;;;0.88;;
56373;SDS011;58212;47.034;7.376;2024-02-23T09:22:57;1.42;;;0.52;;
56373;SDS011;58212;47.034;7.376;2024-02-23T09:25:24;3.35;;;1.25;;
56373;SDS011;58212;47.034;7.376;2024-02-23T09:27:51;1.77;;;0.70;;
56373;SDS011;58212;47.034;7.376;2024-02-23T09:30:18;1.70;;;0.82;;
56373;SDS011;58212;47.034;7.376;2024-02-23T09:32:46;2.42;;;0.85;;
56373;SDS011;58212;47.034;7.376;2024-02-23T09:35:12;3.30;;;0.75;;
56373;SDS011;58212;47.034;7.376;2024-02-23T09:37:39;2.53;;;0.80;;
56373;SDS011;58212;47.034;7.376;2024-02-23T09:40:08;1.45;;;0.40;;
56373;SDS011;58212;47.034;7.376;2024-02-23T09:42:36;2.65;;;1.40;;
56373;SDS011;58212;47.034;7.376;2024-02-23T09:45:03;2.38;;;0.63;;
56373;SDS011;58212;47.034;7.376;2024-02-23T09:47:32;4.25;;;0.98;;
56373;SDS011;58212;47.034;7.376;2024-02-23T09:49:58;2.10;;;0.47;;
56373;SDS011;58212;47.034;7.376;2024-02-23T09:52:30;1.27;;;0.50;;
56373;SDS011;58212;47.034;7.376;2024-02-23T09:54:58;1.48;;;0.52;;
56373;SDS011;58212;47.034;7.376;2024-02-23T09:57:27;2.47;;;0.50;;
56373;SDS011;58212;47.034;7.376;2024-02-23T09:59:53;3.17;;;0.70;;
56373;SDS011;58212;47.034;7.376;2024-02-23T10:02:21;1.17;;;0.50;;
56373;SDS011;58212;47.034;7.376;2024-02-23T10:04:48;2.38;;;0.40;;
56373;SDS011;58212;47.034;7.376;2024-02-23T10:07:17;2.00;;;0.50;;
56373;SDS011;58212;47.034;7.376;2024-02-23T10:09:44;2.65;;;0.70;;
56373;SDS011;58212;47.034;7.376;2024-02-23T10:12:11;1.25;;;0.50;;
56373;SDS011;58212;47.034;7.376;2024-02-23T10:14:39;2.25;;;0.50;;
56373;SDS011;58212;47.034;7.376;2024-02-23T10:17:07;1.25;;;0.50;;
56373;SDS011;58212;47.034;7.376;2024-02-23T10:19:34;1.48;;;0.98;;
56373;SDS011;58212;47.034;7.376;2024-02-23T10:22:01;1.98;;;0.90;;
56373;SDS011;58212;47.034;7.376;2024-02-23T10:24:28;1.83;;;0.60;;
56373;SDS011;58212;47.034;7.376;2024-02-23T10:26:55;2.15;;;0.63;;
56373;SDS011;58212;47.034;7.376;2024-02-23T10:29:22;3.35;;;0.60;;
56373;SDS011;58212;47.034;7.376;2024-02-23T10:31:51;2.63;;;0.75;;
56373;SDS011;58212;47.034;7.376;2024-02-23T10:34:18;2.60;;;0.70;;
56373;SDS011;58212;47.034;7.376;2024-02-23T10:36:46;1.83;;;0.50;;
56373;SDS011;58212;47.034;7.376;2024-02-23T10:39:16;0.88;;;0.47;;
56373;SDS011;58212;47.034;7.376;2024-02-23T10:41:46;2.13;;;0.60;;
56373;SDS011;58212;47.034;7.376;2024-02-23T10:44:18;3.65;;;0.80;;
56373;SDS011;58212;47.034;7.376;2024-02-23T10:46:45;1.88;;;0.70;;
56373;SDS011;58212;47.034;7.376;2024-02-23T10:49:14;5.18;;;0.80;;
56373;SDS011;58212;47.034;7.376;2024-02-23T10:51:42;1.95;;;0.70;;
56373;SDS011;58212;47.034;7.376;2024-02-23T10:54:10;1.95;;;0.80;;
56373;SDS011;58212;47.034;7.376;2024-02-23T10:56:37;1.60;;;0.40;;
56373;SDS011;58212;47.034;7.376;2024-02-23T10:59:05;2.13;;;0.57;;
56373;SDS011;58212;47.034;7.376;2024-02-23T11:01:34;2.95;;;0.50;;
56373;SDS011;58212;47.034;7.376;2024-02-23T11:04:04;2.60;;;0.70;;
56373;SDS011;58212;47.034;7.376;2024-02-23T11:06:35;1.55;;;0.75;;
56373;SDS011;58212;47.034;7.376;2024-02-23T11:09:05;2.47;;;0.50;;
56373;SDS011;58212;47.034;7.376;2024-02-23T11:11:33;1.58;;;0.50;;
56373;SDS011;58212;47.034;7.376;2024-02-23T11:14:02;2.33;;;0.70;;
56373;SDS011;58212;47.034;7.376;2024-02-23T11:16:31;1.20;;;0.40;;
56373;SDS011;58212;47.034;7.376;2024-02-23T11:19:03;9.38;;;1.30;;
56373;SDS011;58212;47.034;7.376;2024-02-23T11:21:35;1.90;;;0.60;;
56373;SDS011;58212;47.034;7.376;2024-02-23T11:24:03;1.80;;;0.60;;
56373;SDS011;58212;47.034;7.376;2024-02-23T11:26:31;1.35;;;0.50;;
56373;SDS011;58212;47.034;7.376;2024-02-23T11:28:58;1.38;;;0.50;;
56373;SDS011;58212;47.034;7.376;2024-02-23T11:31:35;2.03;;;0.70;;
56373;SDS011;58212;47.034;7.376;2024-02-23T11:34:07;1.42;;;0.50;;
56373;SDS011;58212;47.034;7.376;2024-02-23T11:36:36;0.95;;;0.43;;
56373;SDS011;58212;47.034;7.376;2024-02-23T11:39:05;2.05;;;0.73;;
56373;SDS011;58212;47.034;7.376;2024-02-23T11:41:32;2.80;;;0.47;;
56373;SDS011;58212;47.034;7.376;2024-02-23T11:43:59;2.15;;;0.50;;
56373;SDS011;58212;47.034;7.376;2024-02-23T11:46:25;1.88;;;0.55;;
56373;SDS011;58212;47.034;7.376;2024-02-23T11:48:52;2.10;;;0.70;;
56373;SDS011;58212;47.034;7.376;2024-02-23T11:51:19;2.60;;;0.85;;
56373;SDS011;58212;47.034;7.376;2024-02-23T11:53:48;2.97;;;0.70;;
56373;SDS011;58212;47.034;7.376;2024-02-23T11:56:16;1.02;;;0.50;;
56373;SDS011;58212;47.034;7.376;2024-02-23T11:58:43;2.95;;;0.60;;
56373;SDS011;58212;47.034;7.376;2024-02-23T12:01:11;0.80;;;0.30;;
56373;SDS011;58212;47.034;7.376;2024-02-23T12:03:37;2.55;;;0.63;;
56373;SDS011;58212;47.034;7.376;2024-02-23T12:06:04;2.15;;;0.63;;
56373;SDS011;58212;47.034;7.376;2024-02-23T12:08:33;2.65;;;0.63;;
56373;SDS011;58212;47.034;7.376;2024-02-23T12:11:04;1.88;;;0.40;;
56373;SDS011;58212;47.034;7.376;2024-02-23T12:13:33;2.15;;;0.57;;
56373;SDS011;58212;47.034;7.376;2024-02-23T12:16:00;2.42;;;0.63;;
56373;SDS011;58212;47.034;7.376;2024-02-23T12:18:28;2.33;;;0.60;;
56373;SDS011;58212;47.034;7.376;2024-02-23T12:20:58;2.08;;;0.60;;
56373;SDS011;58212;47.034;7.376;2024-02-23T12:23:26;2.10;;;0.55;;
56373;SDS011;58212;47.034;7.376;2024-02-23T12:25:53;2.22;;;0.70;;
56373;SDS011;58212;47.034;7.376;2024-02-23T12:28:22;6.13;;;0.70;;
56373;SDS011;58212;47.034;7.376;2024-02-23T12:30:59;2.00;;;0.80;;
56373;SDS011;58212;47.034;7.376;2024-02-23T12:33:26;1.60;;;0.68;;
56373;SDS011;58212;47.034;7.376;2024-02-23T12:35:54;2.67;;;0.60;;
56373;SDS011;58212;47.034;7.376;2024-02-23T12:38:21;5.43;;;0.85;;
56373;SDS011;58212;47.034;7.376;2024-02-23T12:40:48;3.85;;;0.60;;
56373;SDS011;58212;47.034;7.376;2024-02-23T12:43:15;2.97;;;0.60;;
56373;SDS011;58212;47.034;7.376;2024-02-23T12:45:43;1.90;;;0.60;;
56373;SDS011;58212;47.034;7.376;2024-02-23T12:48:14;2.55;;;0.55;;
56373;SDS011;58212;47.034;7.376;2024-02-23T12:50:41;2.95;;;0.70;;
56373;SDS011;58212;47.034;7.376;2024-02-23T12:53:08;1.05;;;0.50;;
56373;SDS011;58212;47.034;7.376;2024-02-23T12:55:35;2.08;;;0.50;;
56373;SDS011;58212;47.034;7.376;2024-02-23T12:58:02;2.25;;;0.50;;
56373;SDS011;58212;47.034;7.376;2024-02-23T13:00:29;2.67;;;0.80;;
56373;SDS011;58212;47.034;7.376;2024-02-23T13:02:57;2.83;;;0.70;;
56373;SDS011;58212;47.034;7.376;2024-02-23T13:05:24;2.10;;;0.52;;
56373;SDS011;58212;47.034;7.376;2024-02-23T13:07:51;4.63;;;0.60;;
56373;SDS011;58212;47.034;7.376;2024-02-23T13:10:18;2.33;;;0.60;;
56373;SDS011;58212;47.034;7.376;2024-02-23T13:12:45;6.25;;;0.68;;
56373;SDS011;58212;47.034;7.376;2024-02-23T13:15:12;4.15;;;0.60;;
56373;SDS011;58212;47.034;7.376;2024-02-23T13:17:39;5.05;;;1.33;;
56373;SDS011;58212;47.034;7.376;2024-02-23T13:20:08;2.38;;;0.65;;
56373;SDS011;58212;47.034;7.376;2024-02-23T13:22:37;1.50;;;0.50;;
56373;SDS011;58212;47.034;7.376;2024-02-23T13:25:04;2.95;;;0.60;;
56373;SDS011;58212;47.034;7.376;2024-02-23T13:27:32;3.50;;;0.60;;
56373;SDS011;58212;47.034;7.376;2024-02-23T13:29:59;2.55;;;0.40;;
56373;SDS011;58212;47.034;7.376;2024-02-23T13:32:26;3.47;;;0.65;;
56373;SDS011;58212;47.034;7.376;2024-02-23T13:34:52;2.45;;;0.50;;
56373;SDS011;58212;47.034;7.376;2024-02-23T13:37:20;1.10;;;0.63;;
56373;SDS011;58212;47.034;7.376;2024-02-23T13:39:47;7.93;;;0.88;;
56373;SDS011;58212;47.034;7.376;2024-02-23T13:42:14;1.85;;;0.50;;
56373;SDS011;58212;47.034;7.376;2024-02-23T13:44:41;1.77;;;0.57;;
56373;SDS011;58212;47.034;7.376;2024-02-23T13:47:08;2.55;;;0.52;;
56373;SDS011;58212;47.034;7.376;2024-02-23T13:49:38;1.75;;;0.40;;
56373;SDS011;58212;47.034;7.376;2024-02-23T13:52:05;2.60;;;0.60;;
56373;SDS011;58212;47.034;7.376;2024-02-23T13:54:33;1.13;;;0.50;;
56373;SDS011;58212;47.034;7.376;2024-02-23T13:57:00;1.23;;;0.52;;
56373;SDS011;58212;47.034;7.376;2024-02-23T13:59:27;2.80;;;0.50;;
56373;SDS011;58212;47.034;7.376;2024-02-23T14:01:54;1.80;;;0.60;;
56373;SDS011;58212;47.034;7.376;2024-02-23T14:04:21;2.85;;;0.70;;
56373;SDS011;58212;47.034;7.376;2024-02-23T14:06:47;1.77;;;0.70;;
56373;SDS011;58212;47.034;7.376;2024-02-23T14:09:14;7.05;;;1.13;;
56373;SDS011;58212;47.034;7.376;2024-02-23T14:11:42;3.70;;;0.73;;
56373;SDS011;58212;47.034;7.376;2024-02-23T14:14:10;3.83;;;0.70;;
56373;SDS011;58212;47.034;7.376;2024-02-23T14:16:37;11.93;;;1.35;;
56373;SDS011;58212;47.034;7.376;2024-02-23T14:19:04;2.83;;;0.70;;
56373;SDS011;58212;47.034;7.376;2024-02-23T14:21:30;3.70;;;0.52;;
56373;SDS011;58212;47.034;7.376;2024-02-23T14:23:57;2.67;;;0.50;;
56373;SDS011;58212;47.034;7.376;2024-02-23T14:26:25;1.55;;;0.40;;
56373;SDS011;58212;47.034;7.376;2024-02-23T14:28:53;2.25;;;0.60;;
56373;SDS011;58212;47.034;7.376;2024-02-23T14:31:19;1.58;;;0.70;;
56373;SDS011;58212;47.034;7.376;2024-02-23T14:33:46;1.17;;;0.43;;
56373;SDS011;58212;47.034;7.376;2024-02-23T14:36:16;1.90;;;0.40;;
56373;SDS011;58212;47.034;7.376;2024-02-23T14:38:42;1.27;;;0.52;;
56373;SDS011;58212;47.034;7.376;2024-02-23T14:41:09;2.85;;;0.52;;
56373;SDS011;58212;47.034;7.376;2024-02-23T14:43:36;3.35;;;0.98;;
56373;SDS011;58212;47.034;7.376;2024-02-23T14:46:04;2.20;;;0.38;;
56373;SDS011;58212;47.034;7.376;2024-02-23T14:48:31;1.58;;;0.50;;